Anna Maria, FL (34216)

8:20 PM EDT on July 29, 2016 (GMT -0400)
Anna Maria Island | | Change Station

Elev 20 ft 27.53 °N, 82.73 °W | Updated 12 seconds ago

Clear
Clear
84.7 °F
Feels Like 96 °F
N
1.1
Wind Variable Wind from SW
Gusts 2.5 mph

Today
High -- | Low -- °F
--% Chance of Precip.
Yesterday
High -- | Low -- °F
Precip. -- in
Pressure 30.02 in
Visibility 10.0 miles
Clouds Clear
Heat Index 96 °F
Dew Point 78 °F
Humidity 79%
Rainfall 0.48 in
Snow Depth Not available.
6:53 AM 8:21 PM
Waning Crescent, 18% visible
METAR KSRQ 292353Z AUTO 00000KT 10SM CLR 30/24 A3002 RMK AO2 SLP165 60000 T03000239 10306 20261 55002
Pressure 30.02 in
Visibility 10.0 miles
Clouds Clear
Heat Index 96 °F
Dew Point 78 °F
Humidity 79%
Rainfall 0.48 in
Snow Depth Not available.
6:53 AM 8:21 PM
Waning Crescent, 18% visible
METAR KSRQ 292353Z AUTO 00000KT 10SM CLR 30/24 A3002 RMK AO2 SLP165 60000 T03000239 10306 20261 55002

10-Day Weather Forecast

Almanac

Astronomy

Jul. 29, 2016 Rise Set
Actual Time
Civil Twilight
Nautical Twilight
Astronomical Twilight
Moon
Length of Visible Light
Length of Day
Tomorrow will be .
, % of the Moon is Illuminated

Today's Extremes

State Highs State Lows

Community

WunderPhotos

Upload Photos

1,928,449 photos uploaded!

WunderBlog® & News

Nearby

Air Quality

  Air Quality AQ Index Pollutant
Not available.

Snow Depth

Station Depth Elevation

Earthquake Activity

City Distance Mag. Time & Date
Minimum magnitude displayed is 2.5.

Coastal Water Temperatures

Place Temperature

Stations

Nearby Weather Stations

Station Location Temp. Windchill Dew Point Humidity Wind Precip. Elev Updated Type
                   

Watches & Warnings

There are currently no watches in effect.